sensor_id;sensor_type;location;lat;lon;timestamp;pressure;altitude;pressure_sealevel;temperature;humidity
13420;BME280;6781;58.440;15.470;2022-12-11T00:00:06;101186.22;;;-6.51;100.00
13420;BME280;6781;58.440;15.470;2022-12-11T00:02:36;101195.47;;;-6.35;100.00
13420;BME280;6781;58.440;15.470;2022-12-11T00:05:04;101201.34;;;-6.19;100.00
13420;BME280;6781;58.440;15.470;2022-12-11T00:07:31;101208.91;;;-6.06;100.00
13420;BME280;6781;58.440;15.470;2022-12-11T00:09:58;101207.19;;;-5.90;100.00
13420;BME280;6781;58.440;15.470;2022-12-11T00:12:25;101210.56;;;-5.91;100.00
13420;BME280;6781;58.440;15.470;2022-12-11T00:14:52;101202.16;;;-6.01;100.00
13420;BME280;6781;58.440;15.470;2022-12-11T00:17:19;101193.75;;;-6.00;100.00
13420;BME280;6781;58.440;15.470;2022-12-11T00:19:50;101197.91;;;-5.85;100.00
13420;BME280;6781;58.440;15.470;2022-12-11T00:22:19;101193.69;;;-5.80;100.00
13420;BME280;6781;58.440;15.470;2022-12-11T00:24:50;101189.47;;;-5.79;100.00
13420;BME280;6781;58.440;15.470;2022-12-11T00:27:17;101200.41;;;-5.76;100.00
13420;BME280;6781;58.440;15.470;2022-12-11T00:29:47;101196.19;;;-5.75;100.00
13420;BME280;6781;58.440;15.470;2022-12-11T00:32:14;101196.19;;;-5.69;100.00
13420;BME280;6781;58.440;15.470;2022-12-11T00:34:42;101202.88;;;-5.56;100.00
13420;BME280;6781;58.440;15.470;2022-12-11T00:37:09;101198.66;;;-5.55;100.00
13420;BME280;6781;58.440;15.470;2022-12-11T00:39:38;101198.66;;;-5.51;100.00
13420;BME280;6781;58.440;15.470;2022-12-11T00:42:05;101191.94;;;-5.61;100.00
13420;BME280;6781;58.440;15.470;2022-12-11T00:44:32;101191.13;;;-5.63;100.00
13420;BME280;6781;58.440;15.470;2022-12-11T00:47:00;101175.13;;;-5.62;100.00
13420;BME280;6781;58.440;15.470;2022-12-11T00:49:27;101180.16;;;-5.58;100.00
13420;BME280;6781;58.440;15.470;2022-12-11T00:51:54;101175.06;;;-5.50;100.00
13420;BME280;6781;58.440;15.470;2022-12-11T00:54:25;101166.66;;;-5.47;100.00
13420;BME280;6781;58.440;15.470;2022-12-11T00:56:57;101172.50;;;-5.39;100.00
13420;BME280;6781;58.440;15.470;2022-12-11T00:59:24;101161.59;;;-5.50;100.00
13420;BME280;6781;58.440;15.470;2022-12-11T01:01:51;101167.50;;;-5.50;100.00
13420;BME280;6781;58.440;15.470;2022-12-11T01:04:21;101160.75;;;-5.45;100.00
13420;BME280;6781;58.440;15.470;2022-12-11T01:06:54;101169.13;;;-5.34;100.00
13420;BME280;6781;58.440;15.470;2022-12-11T01:09:22;101169.97;;;-5.35;100.00
13420;BME280;6781;58.440;15.470;2022-12-11T01:12:11;101162.41;;;-5.44;100.00
13420;BME280;6781;58.440;15.470;2022-12-11T01:14:40;101164.09;;;-5.40;100.00
13420;BME280;6781;58.440;15.470;2022-12-11T01:17:07;101175.00;;;-5.35;100.00
13420;BME280;6781;58.440;15.470;2022-12-11T01:19:47;101168.31;;;-5.42;100.00
13420;BME280;6781;58.440;15.470;2022-12-11T01:22:39;101169.94;;;-5.30;100.00
13420;BME280;6781;58.440;15.470;2022-12-11T01:25:07;101169.13;;;-5.34;100.00
13420;BME280;6781;58.440;15.470;2022-12-11T01:27:40;101174.97;;;-5.27;100.00
13420;BME280;6781;58.440;15.470;2022-12-11T01:30:13;101169.97;;;-5.35;100.00
13420;BME280;6781;58.440;15.470;2022-12-11T01:32:41;101167.44;;;-5.35;100.00
13420;BME280;6781;58.440;15.470;2022-12-11T01:35:10;101164.09;;;-5.43;100.00
13420;BME280;6781;58.440;15.470;2022-12-11T01:37:37;101161.56;;;-5.40;100.00
13420;BME280;6781;58.440;15.470;2022-12-11T01:40:10;101162.41;;;-5.38;100.00
13420;BME280;6781;58.440;15.470;2022-12-11T01:42:40;101158.97;;;-5.28;100.00
13420;BME280;6781;58.440;15.470;2022-12-11T01:47:54;101152.28;;;-5.38;100.00
13420;BME280;6781;58.440;15.470;2022-12-11T01:50:33;101159.00;;;-5.31;100.00
13420;BME280;6781;58.440;15.470;2022-12-11T01:53:17;101168.16;;;-5.19;100.00
13420;BME280;6781;58.440;15.470;2022-12-11T01:55:47;101167.38;;;-5.26;100.00
13420;BME280;6781;58.440;15.470;2022-12-11T01:58:30;101150.56;;;-5.27;100.00
13420;BME280;6781;58.440;15.470;2022-12-11T02:01:03;101157.31;;;-5.29;100.00
13420;BME280;6781;58.440;15.470;2022-12-11T02:06:32;101156.41;;;-5.20;100.00
13420;BME280;6781;58.440;15.470;2022-12-11T02:09:19;101157.19;;;-5.13;100.00
13420;BME280;6781;58.440;15.470;2022-12-11T02:11:57;101152.16;;;-5.19;100.00
13420;BME280;6781;58.440;15.470;2022-12-11T02:14:31;101150.56;;;-5.30;100.00
13420;BME280;6781;58.440;15.470;2022-12-11T02:17:07;101141.28;;;-5.26;100.00
13420;BME280;6781;58.440;15.470;2022-12-11T02:19:43;101137.88;;;-5.20;100.00
13420;BME280;6781;58.440;15.470;2022-12-11T02:22:18;101143.78;;;-5.20;100.00
13420;BME280;6781;58.440;15.470;2022-12-11T02:25:14;101142.00;;;-5.12;100.00
13420;BME280;6781;58.440;15.470;2022-12-11T02:28:16;101140.31;;;-5.08;100.00
13420;BME280;6781;58.440;15.470;2022-12-11T02:30:44;101138.63;;;-5.09;100.00
13420;BME280;6781;58.440;15.470;2022-12-11T02:33:13;101135.22;;;-5.05;100.00
13420;BME280;6781;58.440;15.470;2022-12-11T02:35:42;101135.28;;;-5.11;100.00
13420;BME280;6781;58.440;15.470;2022-12-11T02:38:11;101117.81;;;-5.46;100.00
13420;BME280;6781;58.440;15.470;2022-12-11T02:40:40;101130.31;;;-5.23;100.00
13420;BME280;6781;58.440;15.470;2022-12-11T02:43:09;101121.84;;;-5.19;100.00
13420;BME280;6781;58.440;15.470;2022-12-11T02:45:38;101128.56;;;-5.15;100.00
13420;BME280;6781;58.440;15.470;2022-12-11T02:48:06;101124.31;;;-5.09;100.00
13420;BME280;6781;58.440;15.470;2022-12-11T02:50:35;101123.41;;;-5.02;100.00
13420;BME280;6781;58.440;15.470;2022-12-11T02:53:05;101125.13;;;-5.05;100.00
13420;BME280;6781;58.440;15.470;2022-12-11T02:55:34;101120.06;;;-5.05;100.00
13420;BME280;6781;58.440;15.470;2022-12-11T02:58:03;101114.13;;;-4.98;100.00
13420;BME280;6781;58.440;15.470;2022-12-11T03:00:35;101116.72;;;-5.07;100.00
13420;BME280;6781;58.440;15.470;2022-12-11T03:03:04;101111.72;;;-5.16;100.00
13420;BME280;6781;58.440;15.470;2022-12-11T03:08:07;101112.47;;;-5.04;100.00
13420;BME280;6781;58.440;15.470;2022-12-11T03:10:35;101115.81;;;-5.00;100.00
13420;BME280;6781;58.440;15.470;2022-12-11T03:13:02;101113.34;;;-5.09;100.00
13420;BME280;6781;58.440;15.470;2022-12-11T03:15:31;101115.00;;;-5.05;100.00
13420;BME280;6781;58.440;15.470;2022-12-11T03:18:05;101115.00;;;-5.02;100.00
13420;BME280;6781;58.440;15.470;2022-12-11T03:20:47;101109.13;;;-5.06;100.00
13420;BME280;6781;58.440;15.470;2022-12-11T03:23:20;101109.88;;;-4.96;100.00
13420;BME280;6781;58.440;15.470;2022-12-11T03:25:52;101111.63;;;-5.04;100.00
13420;BME280;6781;58.440;15.470;2022-12-11T03:28:22;101111.53;;;-4.92;100.00
13420;BME280;6781;58.440;15.470;2022-12-11T03:30:52;101105.72;;;-5.03;100.00
13420;BME280;6781;58.440;15.470;2022-12-11T03:33:22;101108.28;;;-5.09;100.00
13420;BME280;6781;58.440;15.470;2022-12-11T03:35:54;101114.16;;;-5.03;100.00
13420;BME280;6781;58.440;15.470;2022-12-11T03:38:22;101108.25;;;-5.03;100.00
13420;BME280;6781;58.440;15.470;2022-12-11T03:40:51;101113.28;;;-5.00;100.00
13420;BME280;6781;58.440;15.470;2022-12-11T03:43:21;101112.44;;;-4.99;100.00
13420;BME280;6781;58.440;15.470;2022-12-11T03:45:49;101104.97;;;-5.17;100.00
13420;BME280;6781;58.440;15.470;2022-12-11T03:48:19;101114.22;;;-5.12;100.00
13420;BME280;6781;58.440;15.470;2022-12-11T03:50:46;101104.94;;;-5.10;100.00
13420;BME280;6781;58.440;15.470;2022-12-11T03:53:18;101107.41;;;-5.04;100.00
13420;BME280;6781;58.440;15.470;2022-12-11T03:55:53;101109.09;;;-5.03;100.00
13420;BME280;6781;58.440;15.470;2022-12-11T03:58:23;101107.47;;;-5.13;100.00
13420;BME280;6781;58.440;15.470;2022-12-11T04:00:51;101093.19;;;-5.18;100.00
13420;BME280;6781;58.440;15.470;2022-12-11T04:03:18;101094.03;;;-5.18;100.00
13420;BME280;6781;58.440;15.470;2022-12-11T04:05:46;101103.25;;;-5.12;100.00
13420;BME280;6781;58.440;15.470;2022-12-11T04:08:14;101094.75;;;-5.02;100.00
13420;BME280;6781;58.440;15.470;2022-12-11T04:10:46;101105.78;;;-5.11;100.00
13420;BME280;6781;58.440;15.470;2022-12-11T04:13:33;101094.78;;;-5.05;100.00
13420;BME280;6781;58.440;15.470;2022-12-11T04:16:03;101097.38;;;-5.16;100.00
13420;BME280;6781;58.440;15.470;2022-12-11T04:18:29;101094.81;;;-5.08;100.00
13420;BME280;6781;58.440;15.470;2022-12-11T04:21:25;101094.00;;;-5.13;100.00
13420;BME280;6781;58.440;15.470;2022-12-11T04:24:09;101090.50;;;-4.97;100.00
13420;BME280;6781;58.440;15.470;2022-12-11T04:26:45;101091.50;;;-5.19;100.00
13420;BME280;6781;58.440;15.470;2022-12-11T04:29:13;101085.53;;;-5.06;100.00
13420;BME280;6781;58.440;15.470;2022-12-11T04:31:40;101086.38;;;-5.07;100.00
13420;BME280;6781;58.440;15.470;2022-12-11T04:34:08;101075.63;;;-5.32;100.00
13420;BME280;6781;58.440;15.470;2022-12-11T04:36:35;101078.16;;;-5.34;100.00
13420;BME280;6781;58.440;15.470;2022-12-11T04:39:03;101078.19;;;-5.40;100.00
13420;BME280;6781;58.440;15.470;2022-12-11T04:41:32;101079.13;;;-5.61;100.00
13420;BME280;6781;58.440;15.470;2022-12-11T04:44:00;101079.94;;;-5.54;100.00
13420;BME280;6781;58.440;15.470;2022-12-11T04:46:27;101074.13;;;-5.70;100.00
13420;BME280;6781;58.440;15.470;2022-12-11T04:48:54;101085.75;;;-5.38;100.00
13420;BME280;6781;58.440;15.470;2022-12-11T04:51:21;101089.09;;;-5.33;100.00
13420;BME280;6781;58.440;15.470;2022-12-11T04:53:48;101100.03;;;-5.30;100.00
13420;BME280;6781;58.440;15.470;2022-12-11T04:56:15;101090.03;;;-5.48;100.00
13420;BME280;6781;58.440;15.470;2022-12-11T04:58:42;101086.63;;;-5.41;100.00
13420;BME280;6781;58.440;15.470;2022-12-11T05:01:11;101091.72;;;-5.53;100.00
13420;BME280;6781;58.440;15.470;2022-12-11T05:03:38;101092.47;;;-5.36;100.00
13420;BME280;6781;58.440;15.470;2022-12-11T05:06:06;101094.16;;;-5.32;100.00
13420;BME280;6781;58.440;15.470;2022-12-11T05:08:33;101093.25;;;-5.21;100.00
13420;BME280;6781;58.440;15.470;2022-12-11T05:11:02;101101.66;;;-5.22;100.00
13420;BME280;6781;58.440;15.470;2022-12-11T05:13:29;101106.00;;;-5.46;100.00
13420;BME280;6781;58.440;15.470;2022-12-11T05:15:56;101101.72;;;-5.29;100.00
13420;BME280;6781;58.440;15.470;2022-12-11T05:18:24;101095.16;;;-5.65;100.00
13420;BME280;6781;58.440;15.470;2022-12-11T05:20:54;101105.06;;;-5.27;100.00
13420;BME280;6781;58.440;15.470;2022-12-11T05:23:21;101095.09;;;-5.51;100.00
13420;BME280;6781;58.440;15.470;2022-12-11T05:25:50;101103.44;;;-5.40;100.00
13420;BME280;6781;58.440;15.470;2022-12-11T05:28:17;101103.38;;;-5.25;100.00
13420;BME280;6781;58.440;15.470;2022-12-11T05:30:44;101106.72;;;-5.22;100.00
13420;BME280;6781;58.440;15.470;2022-12-11T05:33:12;101104.25;;;-5.35;100.00
13420;BME280;6781;58.440;15.470;2022-12-11T05:35:46;101110.13;;;-5.30;100.00
13420;BME280;6781;58.440;15.470;2022-12-11T05:38:14;101112.69;;;-5.33;100.00
13420;BME280;6781;58.440;15.470;2022-12-11T05:40:41;101114.25;;;-5.16;100.00
13420;BME280;6781;58.440;15.470;2022-12-11T05:43:11;101116.84;;;-5.26;100.00
13420;BME280;6781;58.440;15.470;2022-12-11T05:45:37;101107.69;;;-5.45;100.00
13420;BME280;6781;58.440;15.470;2022-12-11T05:48:04;101095.31;;;-5.97;100.00
13420;BME280;6781;58.440;15.470;2022-12-11T05:50:34;101100.34;;;-5.91;100.00
13420;BME280;6781;58.440;15.470;2022-12-11T05:53:05;101100.34;;;-5.94;100.00
13420;BME280;6781;58.440;15.470;2022-12-11T05:55:32;101096.16;;;-5.95;100.00
13420;BME280;6781;58.440;15.470;2022-12-11T05:57:59;101105.34;;;-5.87;100.00
13420;BME280;6781;58.440;15.470;2022-12-11T06:00:26;101097.84;;;-6.01;100.00
13420;BME280;6781;58.440;15.470;2022-12-11T06:02:53;101105.41;;;-5.97;100.00
13420;BME280;6781;58.440;15.470;2022-12-11T06:05:22;101107.00;;;-5.80;100.00
13420;BME280;6781;58.440;15.470;2022-12-11T06:07:49;101109.44;;;-5.61;100.00
13420;BME280;6781;58.440;15.470;2022-12-11T06:10:17;101123.69;;;-5.46;100.00
13420;BME280;6781;58.440;15.470;2022-12-11T06:12:44;101116.16;;;-5.53;100.00
13420;BME280;6781;58.440;15.470;2022-12-11T06:15:12;101123.66;;;-5.37;100.00
13420;BME280;6781;58.440;15.470;2022-12-11T06:17:39;101128.66;;;-5.28;100.00
13420;BME280;6781;58.440;15.470;2022-12-11T06:20:06;101135.44;;;-5.39;100.00
13420;BME280;6781;58.440;15.470;2022-12-11T06:22:32;101122.00;;;-5.47;100.00
13420;BME280;6781;58.440;15.470;2022-12-11T06:25:00;101120.28;;;-5.36;100.00
13420;BME280;6781;58.440;15.470;2022-12-11T06:27:28;101133.63;;;-5.18;100.00
13420;BME280;6781;58.440;15.470;2022-12-11T06:29:55;101140.31;;;-5.11;100.00
13420;BME280;6781;58.440;15.470;2022-12-11T06:32:21;101146.22;;;-5.12;100.00
13420;BME280;6781;58.440;15.470;2022-12-11T06:34:48;101141.16;;;-5.11;100.00
13420;BME280;6781;58.440;15.470;2022-12-11T06:37:15;101143.84;;;-5.34;100.00
13420;BME280;6781;58.440;15.470;2022-12-11T06:39:42;101140.41;;;-5.20;100.00
13420;BME280;6781;58.440;15.470;2022-12-11T06:42:09;101143.78;;;-5.21;100.00
13420;BME280;6781;58.440;15.470;2022-12-11T06:44:37;101133.75;;;-5.34;100.00
13420;BME280;6781;58.440;15.470;2022-12-11T06:47:05;101146.22;;;-5.09;100.00
13420;BME280;6781;58.440;15.470;2022-12-11T06:49:33;101152.06;;;-5.01;100.00
13420;BME280;6781;58.440;15.470;2022-12-11T06:54:58;101166.34;;;-4.93;100.00
13420;BME280;6781;58.440;15.470;2022-12-11T06:57:25;101167.13;;;-4.83;100.00
13420;BME280;6781;58.440;15.470;2022-12-11T06:59:54;101167.13;;;-4.84;100.00
13420;BME280;6781;58.440;15.470;2022-12-11T07:02:21;101161.19;;;-4.80;100.00
13420;BME280;6781;58.440;15.470;2022-12-11T07:04:50;101164.56;;;-4.81;100.00
13420;BME280;6781;58.440;15.470;2022-12-11T07:07:19;101160.34;;;-4.81;100.00
13420;BME280;6781;58.440;15.470;2022-12-11T07:09:46;101164.56;;;-4.80;100.00
13420;BME280;6781;58.440;15.470;2022-12-11T07:12:13;101173.97;;;-5.03;100.00
13420;BME280;6781;58.440;15.470;2022-12-11T07:14:39;101166.47;;;-5.17;100.00
13420;BME280;6781;58.440;15.470;2022-12-11T07:17:08;101165.69;;;-5.23;100.00
13420;BME280;6781;58.440;15.470;2022-12-11T07:19:35;101154.78;;;-5.30;100.00
13420;BME280;6781;58.440;15.470;2022-12-11T07:22:01;101153.16;;;-5.43;100.00
13420;BME280;6781;58.440;15.470;2022-12-11T07:24:28;101160.72;;;-5.39;100.00
13420;BME280;6781;58.440;15.470;2022-12-11T07:26:55;101153.16;;;-5.45;100.00
13420;BME280;6781;58.440;15.470;2022-12-11T07:29:22;101161.56;;;-5.37;100.00
13420;BME280;6781;58.440;15.470;2022-12-11T07:31:49;101164.06;;;-5.35;100.00
13420;BME280;6781;58.440;15.470;2022-12-11T07:34:17;101159.06;;;-5.43;100.00
13420;BME280;6781;58.440;15.470;2022-12-11T07:36:44;101157.41;;;-5.53;100.00
13420;BME280;6781;58.440;15.470;2022-12-11T07:39:11;101154.03;;;-5.53;100.00
13420;BME280;6781;58.440;15.470;2022-12-11T07:41:38;101160.81;;;-5.66;100.00
13420;BME280;6781;58.440;15.470;2022-12-11T07:44:04;101162.47;;;-5.56;100.00
13420;BME280;6781;58.440;15.470;2022-12-11T07:46:31;101157.50;;;-5.86;100.00
13420;BME280;6781;58.440;15.470;2022-12-11T07:48:58;101160.94;;;-5.91;100.00
13420;BME280;6781;58.440;15.470;2022-12-11T07:51:28;101165.88;;;-5.69;100.00
13420;BME280;6781;58.440;15.470;2022-12-11T07:53:56;101179.31;;;-5.55;100.00
13420;BME280;6781;58.440;15.470;2022-12-11T07:56:24;101184.38;;;-5.60;100.00
13420;BME280;6781;58.440;15.470;2022-12-11T07:58:50;101186.06;;;-5.63;100.00
13420;BME280;6781;58.440;15.470;2022-12-11T08:01:18;101184.41;;;-5.73;100.00
13420;BME280;6781;58.440;15.470;2022-12-11T08:03:45;101184.44;;;-5.87;100.00
13420;BME280;6781;58.440;15.470;2022-12-11T08:06:12;101190.38;;;-5.89;100.00
13420;BME280;6781;58.440;15.470;2022-12-11T08:08:42;101191.19;;;-5.87;100.00
13420;BME280;6781;58.440;15.470;2022-12-11T08:11:09;101198.72;;;-5.71;100.00
13420;BME280;6781;58.440;15.470;2022-12-11T08:13:36;101198.69;;;-5.66;100.00
13420;BME280;6781;58.440;15.470;2022-12-11T08:16:03;101204.50;;;-5.40;100.00
13420;BME280;6781;58.440;15.470;2022-12-11T08:18:31;101213.81;;;-5.52;100.00
13420;BME280;6781;58.440;15.470;2022-12-11T08:20:58;101218.78;;;-5.30;100.00
13420;BME280;6781;58.440;15.470;2022-12-11T08:23:24;101219.63;;;-5.28;100.00
13420;BME280;6781;58.440;15.470;2022-12-11T08:25:53;101229.72;;;-5.25;100.00
13420;BME280;6781;58.440;15.470;2022-12-11T08:28:19;101227.22;;;-5.31;100.00
13420;BME280;6781;58.440;15.470;2022-12-11T08:30:46;101218.84;;;-5.45;100.00
13420;BME280;6781;58.440;15.470;2022-12-11T08:33:13;101221.38;;;-5.48;100.00
13420;BME280;6781;58.440;15.470;2022-12-11T08:35:41;101216.34;;;-5.55;100.00
13420;BME280;6781;58.440;15.470;2022-12-11T08:38:10;101209.63;;;-5.61;100.00
13420;BME280;6781;58.440;15.470;2022-12-11T08:40:37;101213.00;;;-5.65;100.00
13420;BME280;6781;58.440;15.470;2022-12-11T08:43:05;101218.84;;;-5.43;100.00
13420;BME280;6781;58.440;15.470;2022-12-11T08:45:31;101221.34;;;-5.39;100.00
13420;BME280;6781;58.440;15.470;2022-12-11T08:47:59;101216.38;;;-5.66;100.00
13420;BME280;6781;58.440;15.470;2022-12-11T08:50:26;101224.75;;;-5.44;100.00
13420;BME280;6781;58.440;15.470;2022-12-11T08:52:53;101223.06;;;-5.45;100.00
13420;BME280;6781;58.440;15.470;2022-12-11T08:55:20;101223.91;;;-5.45;100.00
13420;BME280;6781;58.440;15.470;2022-12-11T08:57:47;101216.38;;;-5.66;100.00
13420;BME280;6781;58.440;15.470;2022-12-11T09:03:24;101213.03;;;-5.77;100.00
13420;BME280;6781;58.440;15.470;2022-12-11T09:05:51;101217.22;;;-5.70;100.00
13420;BME280;6781;58.440;15.470;2022-12-11T09:08:18;101221.44;;;-5.68;100.00
13420;BME280;6781;58.440;15.470;2022-12-11T09:10:44;101219.75;;;-5.75;100.00
13420;BME280;6781;58.440;15.470;2022-12-11T09:13:11;101224.81;;;-5.70;100.00
13420;BME280;6781;58.440;15.470;2022-12-11T09:15:39;101234.03;;;-5.55;100.00
13420;BME280;6781;58.440;15.470;2022-12-11T09:18:06;101242.47;;;-5.58;100.00
13420;BME280;6781;58.440;15.470;2022-12-11T09:20:34;101242.44;;;-5.47;100.00
13420;BME280;6781;58.440;15.470;2022-12-11T09:23:01;101241.63;;;-5.66;100.00
13420;BME280;6781;58.440;15.470;2022-12-11T09:25:29;101250.06;;;-5.73;100.00
13420;BME280;6781;58.440;15.470;2022-12-11T09:27:56;101257.63;;;-5.60;100.00
13420;BME280;6781;58.440;15.470;2022-12-11T09:30:23;101251.75;;;-5.72;100.00
13420;BME280;6781;58.440;15.470;2022-12-11T09:32:50;101260.19;;;-5.85;100.00
13420;BME280;6781;58.440;15.470;2022-12-11T09:35:19;101258.50;;;-5.77;100.00
13420;BME280;6781;58.440;15.470;2022-12-11T09:37:56;101256.81;;;-5.78;100.00
13420;BME280;6781;58.440;15.470;2022-12-11T09:40:23;101268.56;;;-5.68;100.00
13420;BME280;6781;58.440;15.470;2022-12-11T09:42:52;101264.38;;;-5.84;100.00
13420;BME280;6781;58.440;15.470;2022-12-11T09:45:21;101264.44;;;-6.00;100.00
13420;BME280;6781;58.440;15.470;2022-12-11T09:47:48;101271.97;;;-5.81;100.00
13420;BME280;6781;58.440;15.470;2022-12-11T09:50:18;101279.50;;;-5.66;100.00
13420;BME280;6781;58.440;15.470;2022-12-11T09:52:50;101284.53;;;-5.51;100.00
13420;BME280;6781;58.440;15.470;2022-12-11T09:55:21;101276.16;;;-5.86;100.00
13420;BME280;6781;58.440;15.470;2022-12-11T09:57:50;101277.00;;;-5.78;100.00
13420;BME280;6781;58.440;15.470;2022-12-11T10:00:21;101282.88;;;-5.67;100.00
13420;BME280;6781;58.440;15.470;2022-12-11T10:03:03;101286.25;;;-5.62;100.00
13420;BME280;6781;58.440;15.470;2022-12-11T10:05:35;101289.63;;;-5.65;100.00
13420;BME280;6781;58.440;15.470;2022-12-11T10:08:07;101287.06;;;-5.54;100.00
13420;BME280;6781;58.440;15.470;2022-12-11T10:10:40;101282.91;;;-5.76;100.00
13420;BME280;6781;58.440;15.470;2022-12-11T10:13:11;101285.38;;;-5.49;100.00
13420;BME280;6781;58.440;15.470;2022-12-11T10:15:42;101275.31;;;-5.73;100.00
13420;BME280;6781;58.440;15.470;2022-12-11T10:18:10;101277.00;;;-5.78;100.00
13420;BME280;6781;58.440;15.470;2022-12-11T10:20:38;101279.53;;;-5.81;100.00
13420;BME280;6781;58.440;15.470;2022-12-11T10:23:07;101285.38;;;-5.52;100.00
13420;BME280;6781;58.440;15.470;2022-12-11T10:25:34;101292.09;;;-5.42;100.00
13420;BME280;6781;58.440;15.470;2022-12-11T10:28:09;101304.72;;;-5.36;100.00
13420;BME280;6781;58.440;15.470;2022-12-11T10:30:38;101306.41;;;-5.36;100.00
13420;BME280;6781;58.440;15.470;2022-12-11T10:33:10;101311.38;;;-5.18;100.00
13420;BME280;6781;58.440;15.470;2022-12-11T10:35:41;101306.38;;;-5.24;100.00
13420;BME280;6781;58.440;15.470;2022-12-11T10:38:12;101307.25;;;-5.42;100.00
13420;BME280;6781;58.440;15.470;2022-12-11T10:40:40;101293.81;;;-5.54;100.00
13420;BME280;6781;58.440;15.470;2022-12-11T10:43:09;101292.97;;;-5.47;100.00
13420;BME280;6781;58.440;15.470;2022-12-11T10:45:36;101290.41;;;-5.32;100.00
13420;BME280;6781;58.440;15.470;2022-12-11T10:48:03;101283.72;;;-5.56;100.00
13420;BME280;6781;58.440;15.470;2022-12-11T10:50:30;101284.53;;;-5.51;100.00
13420;BME280;6781;58.440;15.470;2022-12-11T10:52:57;101274.47;;;-5.71;100.00
13420;BME280;6781;58.440;15.470;2022-12-11T10:55:24;101272.75;;;-5.47;100.00
13420;BME280;6781;58.440;15.470;2022-12-11T10:57:53;101271.03;;;-5.36;100.00
13420;BME280;6781;58.440;15.470;2022-12-11T11:00:41;101276.94;;;-5.36;100.00
13420;BME280;6781;58.440;15.470;2022-12-11T11:03:17;101263.50;;;-5.50;100.00
13420;BME280;6781;58.440;15.470;2022-12-11T11:05:45;101266.88;;;-5.57;100.00
13420;BME280;6781;58.440;15.470;2022-12-11T11:08:15;101269.38;;;-5.48;100.00
13420;BME280;6781;58.440;15.470;2022-12-11T11:10:51;101274.44;;;-5.54;100.00
13420;BME280;6781;58.440;15.470;2022-12-11T11:13:19;101266.88;;;-5.51;100.00
13420;BME280;6781;58.440;15.470;2022-12-11T11:15:48;101272.69;;;-5.25;100.00
13420;BME280;6781;58.440;15.470;2022-12-11T11:18:17;101286.19;;;-5.30;100.00
13420;BME280;6781;58.440;15.470;2022-12-11T11:20:46;101280.31;;;-5.41;100.00
13420;BME280;6781;58.440;15.470;2022-12-11T11:23:13;101283.63;;;-5.26;100.00
13420;BME280;6781;58.440;15.470;2022-12-11T11:25:47;101276.09;;;-5.33;100.00
13420;BME280;6781;58.440;15.470;2022-12-11T11:28:16;101277.78;;;-5.43;100.00
13420;BME280;6781;58.440;15.470;2022-12-11T11:30:55;101283.59;;;-5.19;100.00
13420;BME280;6781;58.440;15.470;2022-12-11T11:33:23;101282.81;;;-5.31;100.00
13420;BME280;6781;58.440;15.470;2022-12-11T11:35:50;101287.03;;;-5.33;100.00
13420;BME280;6781;58.440;15.470;2022-12-11T11:38:18;101283.59;;;-5.19;100.00
13420;BME280;6781;58.440;15.470;2022-12-11T11:40:47;101270.22;;;-5.43;100.00
13420;BME280;6781;58.440;15.470;2022-12-11T11:43:19;101265.13;;;-5.34;100.00
13420;BME280;6781;58.440;15.470;2022-12-11T11:45:56;101261.78;;;-5.36;100.00
13420;BME280;6781;58.440;15.470;2022-12-11T11:48:30;101252.53;;;-5.43;100.00
13420;BME280;6781;58.440;15.470;2022-12-11T11:51:02;101264.28;;;-5.30;100.00
13420;BME280;6781;58.440;15.470;2022-12-11T11:53:33;101260.94;;;-5.38;100.00
13420;BME280;6781;58.440;15.470;2022-12-11T11:56:06;101261.81;;;-5.54;100.00
13420;BME280;6781;58.440;15.470;2022-12-11T11:58:41;101260.97;;;-5.51;100.00
13420;BME280;6781;58.440;15.470;2022-12-11T12:01:13;101255.06;;;-5.46;100.00
13420;BME280;6781;58.440;15.470;2022-12-11T12:03:41;101260.09;;;-5.43;100.00
13420;BME280;6781;58.440;15.470;2022-12-11T12:06:09;101260.91;;;-5.33;100.00
13420;BME280;6781;58.440;15.470;2022-12-11T12:08:42;101266.78;;;-5.20;100.00
13420;BME280;6781;58.440;15.470;2022-12-11T12:11:13;101255.88;;;-5.38;100.00
13420;BME280;6781;58.440;15.470;2022-12-11T12:13:44;101246.66;;;-5.54;100.00
13420;BME280;6781;58.440;15.470;2022-12-11T12:16:17;101254.19;;;-5.33;100.00
13420;BME280;6781;58.440;15.470;2022-12-11T12:18:48;101260.84;;;-5.19;100.00
13420;BME280;6781;58.440;15.470;2022-12-11T12:21:18;101262.56;;;-5.23;100.00
13420;BME280;6781;58.440;15.470;2022-12-11T12:23:53;101259.97;;;-5.12;100.00
13420;BME280;6781;58.440;15.470;2022-12-11T12:26:22;101253.31;;;-5.26;100.00
13420;BME280;6781;58.440;15.470;2022-12-11T12:28:54;101256.69;;;-5.30;100.00
13420;BME280;6781;58.440;15.470;2022-12-11T12:31:31;101239.91;;;-5.44;100.00
13420;BME280;6781;58.440;15.470;2022-12-11T12:34:00;101241.53;;;-5.33;100.00
13420;BME280;6781;58.440;15.470;2022-12-11T12:36:31;101243.22;;;-5.26;100.00
13420;BME280;6781;58.440;15.470;2022-12-11T12:39:07;101253.25;;;-5.13;100.00
13420;BME280;6781;58.440;15.470;2022-12-11T12:41:48;101245.75;;;-5.33;100.00
13420;BME280;6781;58.440;15.470;2022-12-11T12:44:27;101239.03;;;-5.37;100.00
13420;BME280;6781;58.440;15.470;2022-12-11T12:47:02;101239.84;;;-5.25;100.00
13420;BME280;6781;58.440;15.470;2022-12-11T12:49:37;101244.09;;;-5.36;100.00
13420;BME280;6781;58.440;15.470;2022-12-11T12:52:18;101226.47;;;-5.60;100.00
13420;BME280;6781;58.440;15.470;2022-12-11T12:55:00;101230.72;;;-5.86;100.00
13420;BME280;6781;58.440;15.470;2022-12-11T13:01:07;101218.91;;;-5.72;100.00
13420;BME280;6781;58.440;15.470;2022-12-11T13:07:15;101224.81;;;-5.73;100.00
13420;BME280;6781;58.440;15.470;2022-12-11T13:10:20;101235.75;;;-5.71;100.00
13420;BME280;6781;58.440;15.470;2022-12-11T13:13:04;101245.84;;;-5.59;100.00
13420;BME280;6781;58.440;15.470;2022-12-11T13:19:25;101234.94;;;-5.85;100.00